KDSM/DSM METAR and TAF weather

Enter ICAO airport designator
Station Type Date Time Source
KDSM METAR 2024/06/14 02:54 UTC NOAA

KDSM 140254Z 00000KT 10SM SCT080 27/13 A2990 RMK AO2 SLP117 T02720133 53008


Station Type Date Time Source
KDSM Decoded METAR 2024/06/14 02:54 UTC NOAA

DES MOINES INTERNATIONAL, IA, United States (KDSM) 41-32N 93-40W 295M
Jun 13, 2024 - 10:54 PM EDT / 2024.06.14 0254 UTC
Wind: Calm:0
Visibility: 10 mile(s):0
Sky conditions: partly cloudy
Temperature: 81.0 F (27.2 C)
Dew Point: 55.9 F (13.3 C)
Relative Humidity: 42%
Pressure (altimeter): 29.9 in. Hg (1012 hPa)
Pressure tendency: 0.02 inches (0.8 hPa) higher than three hours ago
ob: KDSM 140254Z 00000KT 10SM SCT080 27/13 A2990 RMK AO2 SLP117 T02720133 53008
cycle: 3

Station Type Date Time Source
KDSM TAF 2024/06/13 21:16 UTC NOAA